sensor_id;sensor_type;location;lat;lon;timestamp;temperature;humidity
63802;DHT22;49949;43.060;25.624;2023-07-22T00:01:26;27.80;80.30
63802;DHT22;49949;43.060;25.624;2023-07-22T00:03:52;27.80;80.60
63802;DHT22;49949;43.060;25.624;2023-07-22T00:06:17;27.80;80.60
63802;DHT22;49949;43.060;25.624;2023-07-22T00:08:43;27.80;80.90
63802;DHT22;49949;43.060;25.624;2023-07-22T00:11:09;27.80;80.70
63802;DHT22;49949;43.060;25.624;2023-07-22T00:13:35;27.80;81.10
63802;DHT22;49949;43.060;25.624;2023-07-22T00:16:01;27.70;81.30
63802;DHT22;49949;43.060;25.624;2023-07-22T00:18:30;27.70;81.70
63802;DHT22;49949;43.060;25.624;2023-07-22T00:20:56;27.60;81.30
63802;DHT22;49949;43.060;25.624;2023-07-22T00:23:22;27.60;81.30
63802;DHT22;49949;43.060;25.624;2023-07-22T00:25:48;27.70;81.40
63802;DHT22;49949;43.060;25.624;2023-07-22T00:28:14;27.60;81.80
63802;DHT22;49949;43.060;25.624;2023-07-22T00:30:40;27.70;81.60
63802;DHT22;49949;43.060;25.624;2023-07-22T00:33:07;27.60;82.10
63802;DHT22;49949;43.060;25.624;2023-07-22T00:35:33;27.50;82.10
63802;DHT22;49949;43.060;25.624;2023-07-22T00:38:02;27.50;82.50
63802;DHT22;49949;43.060;25.624;2023-07-22T00:40:29;27.50;82.80
63802;DHT22;49949;43.060;25.624;2023-07-22T00:42:57;27.50;82.70
63802;DHT22;49949;43.060;25.624;2023-07-22T00:45:24;27.50;83.30
63802;DHT22;49949;43.060;25.624;2023-07-22T00:47:50;27.50;82.80
63802;DHT22;49949;43.060;25.624;2023-07-22T00:50:16;27.50;83.40
63802;DHT22;49949;43.060;25.624;2023-07-22T00:52:41;27.50;83.20
63802;DHT22;49949;43.060;25.624;2023-07-22T00:55:08;27.60;82.70
63802;DHT22;49949;43.060;25.624;2023-07-22T00:57:33;27.60;82.80
63802;DHT22;49949;43.060;25.624;2023-07-22T00:59:59;27.70;84.10
63802;DHT22;49949;43.060;25.624;2023-07-22T01:02:25;27.70;84.40
63802;DHT22;49949;43.060;25.624;2023-07-22T01:04:51;27.80;84.50
63802;DHT22;49949;43.060;25.624;2023-07-22T01:07:17;27.80;85.20
63802;DHT22;49949;43.060;25.624;2023-07-22T01:09:44;27.80;84.70
63802;DHT22;49949;43.060;25.624;2023-07-22T01:12:10;27.80;83.90
63802;DHT22;49949;43.060;25.624;2023-07-22T01:14:38;27.90;84.60
63802;DHT22;49949;43.060;25.624;2023-07-22T01:17:05;27.90;84.10
63802;DHT22;49949;43.060;25.624;2023-07-22T01:19:32;27.90;85.10
63802;DHT22;49949;43.060;25.624;2023-07-22T01:22:01;27.90;85.50
63802;DHT22;49949;43.060;25.624;2023-07-22T01:24:28;27.80;85.70
63802;DHT22;49949;43.060;25.624;2023-07-22T01:26:55;27.70;88.20
63802;DHT22;49949;43.060;25.624;2023-07-22T01:29:22;27.50;88.50
63802;DHT22;49949;43.060;25.624;2023-07-22T01:31:51;27.40;88.70
63802;DHT22;49949;43.060;25.624;2023-07-22T01:34:17;27.40;89.50
63802;DHT22;49949;43.060;25.624;2023-07-22T01:36:43;27.30;91.30
63802;DHT22;49949;43.060;25.624;2023-07-22T01:39:09;27.20;90.40
63802;DHT22;49949;43.060;25.624;2023-07-22T01:41:36;27.00;91.60
63802;DHT22;49949;43.060;25.624;2023-07-22T01:44:02;26.80;92.50
63802;DHT22;49949;43.060;25.624;2023-07-22T01:46:28;26.70;92.60
63802;DHT22;49949;43.060;25.624;2023-07-22T01:48:55;26.60;92.50
63802;DHT22;49949;43.060;25.624;2023-07-22T01:51:21;26.50;90.90
63802;DHT22;49949;43.060;25.624;2023-07-22T01:53:47;26.50;94.90
63802;DHT22;49949;43.060;25.624;2023-07-22T01:56:13;26.30;96.00
63802;DHT22;49949;43.060;25.624;2023-07-22T01:58:39;26.10;94.70
63802;DHT22;49949;43.060;25.624;2023-07-22T02:01:05;26.10;93.00
63802;DHT22;49949;43.060;25.624;2023-07-22T02:03:30;26.10;90.60
63802;DHT22;49949;43.060;25.624;2023-07-22T02:06:03;26.20;89.20
63802;DHT22;49949;43.060;25.624;2023-07-22T02:08:29;26.30;88.40
63802;DHT22;49949;43.060;25.624;2023-07-22T02:11:02;26.30;87.90
63802;DHT22;49949;43.060;25.624;2023-07-22T02:13:30;26.40;87.90
63802;DHT22;49949;43.060;25.624;2023-07-22T02:15:56;26.40;88.70
63802;DHT22;49949;43.060;25.624;2023-07-22T02:18:24;26.50;88.70
63802;DHT22;49949;43.060;25.624;2023-07-22T02:20:50;26.70;86.90
63802;DHT22;49949;43.060;25.624;2023-07-22T02:23:16;26.80;86.20
63802;DHT22;49949;43.060;25.624;2023-07-22T02:25:42;26.80;86.20
63802;DHT22;49949;43.060;25.624;2023-07-22T02:28:08;26.80;86.50
63802;DHT22;49949;43.060;25.624;2023-07-22T02:30:34;26.80;87.10
63802;DHT22;49949;43.060;25.624;2023-07-22T02:33:01;26.80;87.40
63802;DHT22;49949;43.060;25.624;2023-07-22T02:35:28;26.70;88.20
63802;DHT22;49949;43.060;25.624;2023-07-22T02:37:53;26.60;87.90
63802;DHT22;49949;43.060;25.624;2023-07-22T02:40:19;26.50;88.10
63802;DHT22;49949;43.060;25.624;2023-07-22T02:42:45;26.50;88.40
63802;DHT22;49949;43.060;25.624;2023-07-22T02:45:11;26.30;88.90
63802;DHT22;49949;43.060;25.624;2023-07-22T02:47:38;26.20;89.90
63802;DHT22;49949;43.060;25.624;2023-07-22T02:50:07;26.10;90.80
63802;DHT22;49949;43.060;25.624;2023-07-22T02:52:34;25.90;91.70
63802;DHT22;49949;43.060;25.624;2023-07-22T02:57:37;25.70;93.10
63802;DHT22;49949;43.060;25.624;2023-07-22T03:00:04;25.50;92.90
63802;DHT22;49949;43.060;25.624;2023-07-22T03:02:54;25.40;93.50
63802;DHT22;49949;43.060;25.624;2023-07-22T03:05:26;25.30;95.30
63802;DHT22;49949;43.060;25.624;2023-07-22T03:07:53;25.10;98.30
63802;DHT22;49949;43.060;25.624;2023-07-22T03:10:19;24.90;99.30
63802;DHT22;49949;43.060;25.624;2023-07-22T03:12:45;24.80;99.80
63802;DHT22;49949;43.060;25.624;2023-07-22T03:15:11;24.60;99.90
63802;DHT22;49949;43.060;25.624;2023-07-22T03:17:38;24.30;99.90
63802;DHT22;49949;43.060;25.624;2023-07-22T03:20:05;24.10;99.90
63802;DHT22;49949;43.060;25.624;2023-07-22T03:22:43;24.00;99.90
63802;DHT22;49949;43.060;25.624;2023-07-22T03:25:10;23.90;99.90
63802;DHT22;49949;43.060;25.624;2023-07-22T03:27:36;23.90;99.90
63802;DHT22;49949;43.060;25.624;2023-07-22T03:30:06;23.90;99.90
63802;DHT22;49949;43.060;25.624;2023-07-22T03:32:33;23.90;99.90
63802;DHT22;49949;43.060;25.624;2023-07-22T03:35:00;23.80;99.90
63802;DHT22;49949;43.060;25.624;2023-07-22T03:37:27;23.80;99.90
63802;DHT22;49949;43.060;25.624;2023-07-22T03:39:53;23.80;99.90
63802;DHT22;49949;43.060;25.624;2023-07-22T03:42:19;23.90;99.90
63802;DHT22;49949;43.060;25.624;2023-07-22T03:44:44;24.00;99.90
63802;DHT22;49949;43.060;25.624;2023-07-22T03:47:10;24.10;99.90
63802;DHT22;49949;43.060;25.624;2023-07-22T03:49:36;24.20;99.90
63802;DHT22;49949;43.060;25.624;2023-07-22T03:52:01;24.50;99.90
63802;DHT22;49949;43.060;25.624;2023-07-22T03:54:27;24.70;99.90
63802;DHT22;49949;43.060;25.624;2023-07-22T03:56:53;24.80;99.90
63802;DHT22;49949;43.060;25.624;2023-07-22T03:59:19;24.90;99.90
63802;DHT22;49949;43.060;25.624;2023-07-22T04:01:45;25.00;99.90
63802;DHT22;49949;43.060;25.624;2023-07-22T04:04:12;25.20;99.90
63802;DHT22;49949;43.060;25.624;2023-07-22T04:06:38;25.50;99.00
63802;DHT22;49949;43.060;25.624;2023-07-22T04:09:03;25.70;98.80
63802;DHT22;49949;43.060;25.624;2023-07-22T04:11:29;26.00;98.20
63802;DHT22;49949;43.060;25.624;2023-07-22T04:13:55;26.10;97.20
63802;DHT22;49949;43.060;25.624;2023-07-22T04:16:20;26.30;96.60
63802;DHT22;49949;43.060;25.624;2023-07-22T04:18:46;26.40;96.00
63802;DHT22;49949;43.060;25.624;2023-07-22T04:21:12;26.50;95.00
63802;DHT22;49949;43.060;25.624;2023-07-22T04:23:37;26.80;94.10
63802;DHT22;49949;43.060;25.624;2023-07-22T04:26:03;27.20;93.20
63802;DHT22;49949;43.060;25.624;2023-07-22T04:28:34;27.50;91.30
63802;DHT22;49949;43.060;25.624;2023-07-22T04:31:00;28.00;89.80
63802;DHT22;49949;43.060;25.624;2023-07-22T04:33:26;28.20;90.50
63802;DHT22;49949;43.060;25.624;2023-07-22T04:35:55;28.30;89.50
63802;DHT22;49949;43.060;25.624;2023-07-22T04:38:21;28.40;88.80
63802;DHT22;49949;43.060;25.624;2023-07-22T04:40:47;28.70;88.50
63802;DHT22;49949;43.060;25.624;2023-07-22T04:43:13;29.00;87.60
63802;DHT22;49949;43.060;25.624;2023-07-22T04:45:38;29.40;86.90
63802;DHT22;49949;43.060;25.624;2023-07-22T04:48:06;29.60;85.10
63802;DHT22;49949;43.060;25.624;2023-07-22T04:50:32;29.90;84.90
63802;DHT22;49949;43.060;25.624;2023-07-22T04:52:58;29.90;83.50
63802;DHT22;49949;43.060;25.624;2023-07-22T04:55:23;29.70;84.40
63802;DHT22;49949;43.060;25.624;2023-07-22T04:57:49;29.60;84.40
63802;DHT22;49949;43.060;25.624;2023-07-22T05:00:17;29.80;85.60
63802;DHT22;49949;43.060;25.624;2023-07-22T05:02:45;30.20;84.50
63802;DHT22;49949;43.060;25.624;2023-07-22T05:05:15;30.50;82.70
63802;DHT22;49949;43.060;25.624;2023-07-22T05:07:41;30.50;80.40
63802;DHT22;49949;43.060;25.624;2023-07-22T05:10:07;30.50;79.40
63802;DHT22;49949;43.060;25.624;2023-07-22T05:12:38;30.60;79.50
63802;DHT22;49949;43.060;25.624;2023-07-22T05:15:05;30.80;79.00
63802;DHT22;49949;43.060;25.624;2023-07-22T05:17:31;31.00;79.00
63802;DHT22;49949;43.060;25.624;2023-07-22T05:19:57;31.10;77.20
63802;DHT22;49949;43.060;25.624;2023-07-22T05:22:23;31.20;78.60
63802;DHT22;49949;43.060;25.624;2023-07-22T05:24:49;31.70;78.50
63802;DHT22;49949;43.060;25.624;2023-07-22T05:27:14;32.10;73.90
63802;DHT22;49949;43.060;25.624;2023-07-22T05:29:40;32.30;73.10
63802;DHT22;49949;43.060;25.624;2023-07-22T05:32:06;32.40;71.70
63802;DHT22;49949;43.060;25.624;2023-07-22T05:34:32;32.80;70.90
63802;DHT22;49949;43.060;25.624;2023-07-22T05:36:58;33.40;71.80
63802;DHT22;49949;43.060;25.624;2023-07-22T05:39:23;33.40;70.50
63802;DHT22;49949;43.060;25.624;2023-07-22T05:41:49;33.20;70.90
63802;DHT22;49949;43.060;25.624;2023-07-22T05:44:15;33.10;70.90
63802;DHT22;49949;43.060;25.624;2023-07-22T05:46:40;32.90;71.30
63802;DHT22;49949;43.060;25.624;2023-07-22T05:49:06;32.90;72.00
63802;DHT22;49949;43.060;25.624;2023-07-22T05:51:31;33.10;69.60
63802;DHT22;49949;43.060;25.624;2023-07-22T05:53:57;33.20;69.70
63802;DHT22;49949;43.060;25.624;2023-07-22T05:56:23;33.30;69.80
63802;DHT22;49949;43.060;25.624;2023-07-22T05:58:49;33.50;69.70
63802;DHT22;49949;43.060;25.624;2023-07-22T06:01:15;33.50;70.00
63802;DHT22;49949;43.060;25.624;2023-07-22T06:03:41;33.50;69.70
63802;DHT22;49949;43.060;25.624;2023-07-22T06:06:07;33.40;69.30
63802;DHT22;49949;43.060;25.624;2023-07-22T06:08:33;33.10;70.70
63802;DHT22;49949;43.060;25.624;2023-07-22T06:10:59;32.60;72.30
63802;DHT22;49949;43.060;25.624;2023-07-22T06:13:24;32.30;73.50
63802;DHT22;49949;43.060;25.624;2023-07-22T06:15:50;32.30;73.80
63802;DHT22;49949;43.060;25.624;2023-07-22T06:18:16;32.40;73.70
63802;DHT22;49949;43.060;25.624;2023-07-22T06:20:45;32.40;73.60
63802;DHT22;49949;43.060;25.624;2023-07-22T06:23:11;32.50;73.90
63802;DHT22;49949;43.060;25.624;2023-07-22T06:25:37;32.70;73.00
63802;DHT22;49949;43.060;25.624;2023-07-22T06:28:03;32.70;73.00
63802;DHT22;49949;43.060;25.624;2023-07-22T06:30:28;32.80;72.70
63802;DHT22;49949;43.060;25.624;2023-07-22T06:32:54;33.00;72.60
63802;DHT22;49949;43.060;25.624;2023-07-22T06:35:20;32.70;72.60
63802;DHT22;49949;43.060;25.624;2023-07-22T06:37:46;32.70;73.90
63802;DHT22;49949;43.060;25.624;2023-07-22T06:40:12;33.00;73.40
63802;DHT22;49949;43.060;25.624;2023-07-22T06:42:37;33.30;72.00
63802;DHT22;49949;43.060;25.624;2023-07-22T06:45:04;33.50;71.80
63802;DHT22;49949;43.060;25.624;2023-07-22T06:47:29;33.70;71.30
63802;DHT22;49949;43.060;25.624;2023-07-22T06:49:55;33.80;72.40
63802;DHT22;49949;43.060;25.624;2023-07-22T06:52:21;33.90;71.40
63802;DHT22;49949;43.060;25.624;2023-07-22T06:54:47;33.90;70.30
63802;DHT22;49949;43.060;25.624;2023-07-22T06:57:12;34.00;70.90
63802;DHT22;49949;43.060;25.624;2023-07-22T06:59:38;34.00;70.40
63802;DHT22;49949;43.060;25.624;2023-07-22T07:02:04;34.10;70.60
63802;DHT22;49949;43.060;25.624;2023-07-22T07:04:30;34.40;70.60
63802;DHT22;49949;43.060;25.624;2023-07-22T07:06:56;34.50;69.00
63802;DHT22;49949;43.060;25.624;2023-07-22T07:09:22;34.60;68.90
63802;DHT22;49949;43.060;25.624;2023-07-22T07:11:47;34.60;69.10
63802;DHT22;49949;43.060;25.624;2023-07-22T07:14:13;34.50;70.20
63802;DHT22;49949;43.060;25.624;2023-07-22T07:16:39;34.50;69.30
63802;DHT22;49949;43.060;25.624;2023-07-22T07:19:04;34.60;68.30
63802;DHT22;49949;43.060;25.624;2023-07-22T07:21:30;34.70;69.20
63802;DHT22;49949;43.060;25.624;2023-07-22T07:23:56;34.80;69.00
63802;DHT22;49949;43.060;25.624;2023-07-22T07:26:23;34.90;68.10
63802;DHT22;49949;43.060;25.624;2023-07-22T07:28:49;35.00;67.70
63802;DHT22;49949;43.060;25.624;2023-07-22T07:31:16;35.10;65.20
63802;DHT22;49949;43.060;25.624;2023-07-22T07:33:42;35.10;61.90
63802;DHT22;49949;43.060;25.624;2023-07-22T07:36:08;35.10;63.10
63802;DHT22;49949;43.060;25.624;2023-07-22T07:38:34;35.10;62.30
63802;DHT22;49949;43.060;25.624;2023-07-22T07:41:04;35.20;62.30
63802;DHT22;49949;43.060;25.624;2023-07-22T07:43:33;35.20;62.30
63802;DHT22;49949;43.060;25.624;2023-07-22T07:46:24;35.10;61.80
63802;DHT22;49949;43.060;25.624;2023-07-22T07:48:56;35.20;61.60
63802;DHT22;49949;43.060;25.624;2023-07-22T07:51:23;35.30;61.40
63802;DHT22;49949;43.060;25.624;2023-07-22T07:53:50;35.30;61.90
63802;DHT22;49949;43.060;25.624;2023-07-22T07:56:17;35.50;61.60
63802;DHT22;49949;43.060;25.624;2023-07-22T07:58:43;35.60;60.90
63802;DHT22;49949;43.060;25.624;2023-07-22T08:01:09;35.40;61.90
63802;DHT22;49949;43.060;25.624;2023-07-22T08:03:37;35.40;61.50
63802;DHT22;49949;43.060;25.624;2023-07-22T08:06:03;35.50;61.40
63802;DHT22;49949;43.060;25.624;2023-07-22T08:08:30;35.60;60.30
63802;DHT22;49949;43.060;25.624;2023-07-22T08:11:07;35.70;60.20
63802;DHT22;49949;43.060;25.624;2023-07-22T08:13:33;36.00;59.40
63802;DHT22;49949;43.060;25.624;2023-07-22T08:16:03;36.20;59.10
63802;DHT22;49949;43.060;25.624;2023-07-22T08:18:30;36.40;58.60
63802;DHT22;49949;43.060;25.624;2023-07-22T08:20:56;36.60;57.50
63802;DHT22;49949;43.060;25.624;2023-07-22T08:23:22;36.70;58.00
63802;DHT22;49949;43.060;25.624;2023-07-22T08:25:48;36.70;56.80
63802;DHT22;49949;43.060;25.624;2023-07-22T08:28:15;36.90;57.50
63802;DHT22;49949;43.060;25.624;2023-07-22T08:30:40;36.90;57.00
63802;DHT22;49949;43.060;25.624;2023-07-22T08:33:11;37.00;57.40
63802;DHT22;49949;43.060;25.624;2023-07-22T08:35:40;37.10;56.00
63802;DHT22;49949;43.060;25.624;2023-07-22T08:38:06;37.00;55.80
63802;DHT22;49949;43.060;25.624;2023-07-22T08:40:36;37.20;55.40
63802;DHT22;49949;43.060;25.624;2023-07-22T08:43:03;37.20;53.60
63802;DHT22;49949;43.060;25.624;2023-07-22T08:45:31;37.30;54.10
63802;DHT22;49949;43.060;25.624;2023-07-22T08:48:03;37.40;55.10
63802;DHT22;49949;43.060;25.624;2023-07-22T08:50:53;37.20;54.70
63802;DHT22;49949;43.060;25.624;2023-07-22T08:53:20;37.20;54.50
63802;DHT22;49949;43.060;25.624;2023-07-22T08:55:46;37.00;56.50
63802;DHT22;49949;43.060;25.624;2023-07-22T08:58:13;36.80;56.80
63802;DHT22;49949;43.060;25.624;2023-07-22T09:00:40;36.90;56.50
63802;DHT22;49949;43.060;25.624;2023-07-22T09:03:06;36.80;57.50
63802;DHT22;49949;43.060;25.624;2023-07-22T09:05:34;36.90;55.80
63802;DHT22;49949;43.060;25.624;2023-07-22T09:08:03;37.10;54.50
63802;DHT22;49949;43.060;25.624;2023-07-22T09:10:29;37.40;54.00
63802;DHT22;49949;43.060;25.624;2023-07-22T09:12:56;37.40;54.10
63802;DHT22;49949;43.060;25.624;2023-07-22T09:15:22;37.40;55.50
63802;DHT22;49949;43.060;25.624;2023-07-22T09:17:49;37.50;54.60
63802;DHT22;49949;43.060;25.624;2023-07-22T09:20:15;37.40;54.80
63802;DHT22;49949;43.060;25.624;2023-07-22T09:22:46;37.20;55.90
63802;DHT22;49949;43.060;25.624;2023-07-22T09:25:16;37.40;55.20
63802;DHT22;49949;43.060;25.624;2023-07-22T09:27:43;37.20;53.90
63802;DHT22;49949;43.060;25.624;2023-07-22T09:33:00;37.40;54.10
63802;DHT22;49949;43.060;25.624;2023-07-22T09:35:30;37.60;53.20
63802;DHT22;49949;43.060;25.624;2023-07-22T09:37:57;38.10;53.00
63802;DHT22;49949;43.060;25.624;2023-07-22T09:40:24;38.40;51.70
63802;DHT22;49949;43.060;25.624;2023-07-22T09:42:55;38.60;51.70
63802;DHT22;49949;43.060;25.624;2023-07-22T09:45:22;38.60;52.00
63802;DHT22;49949;43.060;25.624;2023-07-22T09:47:49;38.70;52.10
63802;DHT22;49949;43.060;25.624;2023-07-22T09:50:25;38.60;53.20
63802;DHT22;49949;43.060;25.624;2023-07-22T09:52:53;38.40;52.20
63802;DHT22;49949;43.060;25.624;2023-07-22T09:55:21;38.60;51.90
63802;DHT22;49949;43.060;25.624;2023-07-22T09:57:52;38.70;50.80
63802;DHT22;49949;43.060;25.624;2023-07-22T10:00:18;38.60;51.30
63802;DHT22;49949;43.060;25.624;2023-07-22T10:02:48;38.40;51.70
63802;DHT22;49949;43.060;25.624;2023-07-22T10:05:18;38.40;52.30
63802;DHT22;49949;43.060;25.624;2023-07-22T10:07:47;38.40;51.80
63802;DHT22;49949;43.060;25.624;2023-07-22T10:10:49;38.40;51.90
63802;DHT22;49949;43.060;25.624;2023-07-22T10:13:07;38.20;51.40
63802;DHT22;49949;43.060;25.624;2023-07-22T10:15:34;38.50;49.90
63802;DHT22;49949;43.060;25.624;2023-07-22T10:18:01;38.70;50.00
63802;DHT22;49949;43.060;25.624;2023-07-22T10:20:28;38.60;50.10
63802;DHT22;49949;43.060;25.624;2023-07-22T10:22:55;38.70;50.50
63802;DHT22;49949;43.060;25.624;2023-07-22T10:25:22;38.60;50.70
63802;DHT22;49949;43.060;25.624;2023-07-22T10:27:52;38.70;50.30
63802;DHT22;49949;43.060;25.624;2023-07-22T10:30:18;38.80;50.50
63802;DHT22;49949;43.060;25.624;2023-07-22T10:32:49;38.60;50.80
63802;DHT22;49949;43.060;25.624;2023-07-22T10:38:14;38.50;50.80
63802;DHT22;49949;43.060;25.624;2023-07-22T10:40:51;38.60;50.70
63802;DHT22;49949;43.060;25.624;2023-07-22T10:43:27;38.40;50.90
63802;DHT22;49949;43.060;25.624;2023-07-22T10:46:05;38.40;51.80
63802;DHT22;49949;43.060;25.624;2023-07-22T10:48:36;38.50;51.50
63802;DHT22;49949;43.060;25.624;2023-07-22T10:51:08;38.60;51.00
63802;DHT22;49949;43.060;25.624;2023-07-22T10:53:43;38.60;49.80
63802;DHT22;49949;43.060;25.624;2023-07-22T11:12:13;39.00;49.00
63802;DHT22;49949;43.060;25.624;2023-07-22T11:14:44;39.00;49.00
63802;DHT22;49949;43.060;25.624;2023-07-22T11:17:10;38.70;48.90
63802;DHT22;49949;43.060;25.624;2023-07-22T11:19:37;38.70;49.70
63802;DHT22;49949;43.060;25.624;2023-07-22T11:22:03;38.70;50.00
63802;DHT22;49949;43.060;25.624;2023-07-22T11:24:32;38.70;50.10
63802;DHT22;49949;43.060;25.624;2023-07-22T11:26:58;38.70;49.90
63802;DHT22;49949;43.060;25.624;2023-07-22T11:29:24;38.70;50.20
63802;DHT22;49949;43.060;25.624;2023-07-22T11:31:50;38.70;49.20
63802;DHT22;49949;43.060;25.624;2023-07-22T11:34:20;38.60;48.70
63802;DHT22;49949;43.060;25.624;2023-07-22T11:36:47;38.60;48.20
63802;DHT22;49949;43.060;25.624;2023-07-22T11:39:22;38.60;49.80
63802;DHT22;49949;43.060;25.624;2023-07-22T11:41:48;38.60;49.30
63802;DHT22;49949;43.060;25.624;2023-07-22T11:44:20;38.60;48.50
63802;DHT22;49949;43.060;25.624;2023-07-22T11:51:57;38.00;50.20
63802;DHT22;49949;43.060;25.624;2023-07-22T11:54:24;38.30;49.80
63802;DHT22;49949;43.060;25.624;2023-07-22T11:56:50;38.40;49.00
63802;DHT22;49949;43.060;25.624;2023-07-22T11:59:15;38.40;49.20
63802;DHT22;49949;43.060;25.624;2023-07-22T12:01:44;38.40;48.70
63802;DHT22;49949;43.060;25.624;2023-07-22T12:04:13;38.40;48.50
63802;DHT22;49949;43.060;25.624;2023-07-22T12:06:40;38.20;49.40
63802;DHT22;49949;43.060;25.624;2023-07-22T12:09:08;38.40;50.00
63802;DHT22;49949;43.060;25.624;2023-07-22T12:11:35;38.60;48.70
63802;DHT22;49949;43.060;25.624;2023-07-22T12:14:13;38.70;48.20
63802;DHT22;49949;43.060;25.624;2023-07-22T12:16:41;38.60;48.90
63802;DHT22;49949;43.060;25.624;2023-07-22T12:19:08;38.60;49.30
63802;DHT22;49949;43.060;25.624;2023-07-22T12:21:35;38.60;48.20
63802;DHT22;49949;43.060;25.624;2023-07-22T12:24:01;38.70;48.30
63802;DHT22;49949;43.060;25.624;2023-07-22T12:26:27;38.70;48.70
63802;DHT22;49949;43.060;25.624;2023-07-22T12:28:53;38.70;49.10
63802;DHT22;49949;43.060;25.624;2023-07-22T12:31:19;38.80;48.90
63802;DHT22;49949;43.060;25.624;2023-07-22T12:33:45;38.90;48.00
63802;DHT22;49949;43.060;25.624;2023-07-22T12:36:11;38.90;47.70
63802;DHT22;49949;43.060;25.624;2023-07-22T12:38:37;38.60;48.00
63802;DHT22;49949;43.060;25.624;2023-07-22T12:41:05;38.60;48.40
63802;DHT22;49949;43.060;25.624;2023-07-22T12:43:31;38.70;48.70
63802;DHT22;49949;43.060;25.624;2023-07-22T12:45:57;38.70;47.90
63802;DHT22;49949;43.060;25.624;2023-07-22T12:48:22;38.60;49.10
63802;DHT22;49949;43.060;25.624;2023-07-22T12:50:50;38.70;49.00
63802;DHT22;49949;43.060;25.624;2023-07-22T12:53:16;38.80;47.90
63802;DHT22;49949;43.060;25.624;2023-07-22T12:55:42;38.90;47.90
63802;DHT22;49949;43.060;25.624;2023-07-22T12:58:07;38.90;47.20
63802;DHT22;49949;43.060;25.624;2023-07-22T13:00:33;38.70;48.30
63802;DHT22;49949;43.060;25.624;2023-07-22T13:02:59;38.60;49.30
63802;DHT22;49949;43.060;25.624;2023-07-22T13:05:25;38.40;48.00
63802;DHT22;49949;43.060;25.624;2023-07-22T13:07:50;38.30;49.30
63802;DHT22;49949;43.060;25.624;2023-07-22T13:10:16;37.80;49.80
63802;DHT22;49949;43.060;25.624;2023-07-22T13:12:45;37.50;50.70
63802;DHT22;49949;43.060;25.624;2023-07-22T13:15:11;37.50;50.80
63802;DHT22;49949;43.060;25.624;2023-07-22T13:17:37;37.50;50.50
63802;DHT22;49949;43.060;25.624;2023-07-22T13:20:04;37.60;49.80
63802;DHT22;49949;43.060;25.624;2023-07-22T13:22:32;37.30;53.90
63802;DHT22;49949;43.060;25.624;2023-07-22T13:24:58;37.30;53.30
63802;DHT22;49949;43.060;25.624;2023-07-22T13:27:24;37.30;50.80
63802;DHT22;49949;43.060;25.624;2023-07-22T13:29:49;37.30;51.20
63802;DHT22;49949;43.060;25.624;2023-07-22T13:32:15;37.30;52.00
63802;DHT22;49949;43.060;25.624;2023-07-22T13:34:41;37.30;50.60
63802;DHT22;49949;43.060;25.624;2023-07-22T13:37:06;37.20;50.80
63802;DHT22;49949;43.060;25.624;2023-07-22T13:39:32;37.30;51.20
63802;DHT22;49949;43.060;25.624;2023-07-22T13:41:59;37.50;51.00
63802;DHT22;49949;43.060;25.624;2023-07-22T13:44:25;37.70;50.00
63802;DHT22;49949;43.060;25.624;2023-07-22T13:46:50;37.50;50.20
63802;DHT22;49949;43.060;25.624;2023-07-22T13:49:16;37.40;49.20
63802;DHT22;49949;43.060;25.624;2023-07-22T13:51:43;37.30;49.80
63802;DHT22;49949;43.060;25.624;2023-07-22T13:54:08;37.30;49.50
63802;DHT22;49949;43.060;25.624;2023-07-22T13:56:34;37.40;50.00
63802;DHT22;49949;43.060;25.624;2023-07-22T13:59:00;37.60;48.20
63802;DHT22;49949;43.060;25.624;2023-07-22T14:01:26;37.60;48.70
63802;DHT22;49949;43.060;25.624;2023-07-22T14:03:53;37.50;49.00
63802;DHT22;49949;43.060;25.624;2023-07-22T14:06:19;37.40;49.90
63802;DHT22;49949;43.060;25.624;2023-07-22T14:08:44;37.50;49.20
63802;DHT22;49949;43.060;25.624;2023-07-22T14:11:10;37.40;49.60
63802;DHT22;49949;43.060;25.624;2023-07-22T14:13:36;37.50;49.50
63802;DHT22;49949;43.060;25.624;2023-07-22T14:16:02;37.70;49.20
63802;DHT22;49949;43.060;25.624;2023-07-22T14:18:29;38.00;48.80
63802;DHT22;49949;43.060;25.624;2023-07-22T14:20:54;38.30;48.90
63802;DHT22;49949;43.060;25.624;2023-07-22T14:23:20;38.50;48.30
63802;DHT22;49949;43.060;25.624;2023-07-22T14:25:46;38.60;47.90
63802;DHT22;49949;43.060;25.624;2023-07-22T14:28:11;38.70;47.40
63802;DHT22;49949;43.060;25.624;2023-07-22T14:30:37;38.70;47.80
63802;DHT22;49949;43.060;25.624;2023-07-22T14:33:03;38.40;47.30
63802;DHT22;49949;43.060;25.624;2023-07-22T14:35:28;38.30;47.60
63802;DHT22;49949;43.060;25.624;2023-07-22T14:37:54;38.20;48.50
63802;DHT22;49949;43.060;25.624;2023-07-22T14:40:20;38.20;48.60
63802;DHT22;49949;43.060;25.624;2023-07-22T14:42:46;38.00;48.80
63802;DHT22;49949;43.060;25.624;2023-07-22T14:45:11;38.00;49.30
63802;DHT22;49949;43.060;25.624;2023-07-22T14:47:37;38.00;48.50
63802;DHT22;49949;43.060;25.624;2023-07-22T14:50:03;38.00;48.90
63802;DHT22;49949;43.060;25.624;2023-07-22T14:52:28;38.00;48.70
63802;DHT22;49949;43.060;25.624;2023-07-22T14:54:54;37.80;49.10
63802;DHT22;49949;43.060;25.624;2023-07-22T14:57:20;37.70;50.50
63802;DHT22;49949;43.060;25.624;2023-07-22T14:59:45;37.80;52.50
63802;DHT22;49949;43.060;25.624;2023-07-22T15:02:12;37.70;50.30
63802;DHT22;49949;43.060;25.624;2023-07-22T15:04:38;37.80;49.10
63802;DHT22;49949;43.060;25.624;2023-07-22T15:07:03;37.70;52.90
63802;DHT22;49949;43.060;25.624;2023-07-22T15:09:29;37.30;52.10
63802;DHT22;49949;43.060;25.624;2023-07-22T15:11:55;37.30;51.20
63802;DHT22;49949;43.060;25.624;2023-07-22T15:14:21;37.10;55.30
63802;DHT22;49949;43.060;25.624;2023-07-22T15:16:47;37.10;54.70
63802;DHT22;49949;43.060;25.624;2023-07-22T15:19:13;37.00;57.30
63802;DHT22;49949;43.060;25.624;2023-07-22T15:21:38;36.90;57.00
63802;DHT22;49949;43.060;25.624;2023-07-22T15:24:04;36.70;56.80
63802;DHT22;49949;43.060;25.624;2023-07-22T15:26:30;36.70;58.10
63802;DHT22;49949;43.060;25.624;2023-07-22T15:28:56;36.50;59.00
63802;DHT22;49949;43.060;25.624;2023-07-22T15:31:22;36.30;59.30
63802;DHT22;49949;43.060;25.624;2023-07-22T15:33:48;36.20;60.30
63802;DHT22;49949;43.060;25.624;2023-07-22T15:36:14;36.10;63.20
63802;DHT22;49949;43.060;25.624;2023-07-22T15:38:40;36.00;64.70
63802;DHT22;49949;43.060;25.624;2023-07-22T15:41:07;35.80;69.10
63802;DHT22;49949;43.060;25.624;2023-07-22T15:43:32;35.50;67.60